sensor_id;sensor_type;location;lat;lon;timestamp;pressure;altitude;pressure_sealevel;temperature;humidity
30463;BME280;17256;43.618;25.336;2023-03-03T00:14:28;100769.41;;;3.02;100.00
30463;BME280;17256;43.618;25.336;2023-03-03T00:17:11;100760.81;;;3.06;100.00
30463;BME280;17256;43.618;25.336;2023-03-03T00:20:55;100912.94;;;4.08;100.00
30463;BME280;17256;43.618;25.336;2023-03-03T00:24:46;101107.06;;;5.27;100.00
30463;BME280;17256;43.618;25.336;2023-03-03T00:28:16;101105.19;;;5.27;100.00
30463;BME280;17256;43.618;25.336;2023-03-03T00:31:30;100893.31;;;4.14;100.00
30463;BME280;17256;43.618;25.336;2023-03-03T00:34:55;100930.50;;;4.41;100.00
30463;BME280;17256;43.618;25.336;2023-03-03T00:38:25;101104.25;;;5.36;100.00
30463;BME280;17256;43.618;25.336;2023-03-03T00:41:30;100987.72;;;4.77;100.00
30463;BME280;17256;43.618;25.336;2023-03-03T00:48:45;101098.50;;;5.39;100.00
30463;BME280;17256;43.618;25.336;2023-03-03T00:52:38;100767.38;;;3.41;100.00
30463;BME280;17256;43.618;25.336;2023-03-03T00:56:12;100815.50;;;3.86;100.00
30463;BME280;17256;43.618;25.336;2023-03-03T00:59:37;100695.47;;;3.18;100.00
30463;BME280;17256;43.618;25.336;2023-03-03T01:03:17;101079.38;;;5.49;100.00
30463;BME280;17256;43.618;25.336;2023-03-03T01:09:16;100703.69;;;3.35;100.00
30463;BME280;17256;43.618;25.336;2023-03-03T01:12:16;101068.66;;;5.47;100.00
30463;BME280;17256;43.618;25.336;2023-03-03T01:15:33;101079.94;;;5.52;100.00
30463;BME280;17256;43.618;25.336;2023-03-03T01:18:29;101061.19;;;5.49;100.00
30463;BME280;17256;43.618;25.336;2023-03-03T01:22:09;101054.63;;;5.42;100.00
30463;BME280;17256;43.618;25.336;2023-03-03T01:32:14;100920.00;;;4.56;100.00
30463;BME280;17256;43.618;25.336;2023-03-03T01:36:05;100908.25;;;4.55;100.00
30463;BME280;17256;43.618;25.336;2023-03-03T01:39:54;100835.53;;;4.12;100.00
30463;BME280;17256;43.618;25.336;2023-03-03T01:43:20;101042.63;;;5.35;100.00
30463;BME280;17256;43.618;25.336;2023-03-03T01:46:46;101046.38;;;5.52;100.00
30463;BME280;17256;43.618;25.336;2023-03-03T01:50:24;101044.28;;;5.46;100.00
30463;BME280;17256;43.618;25.336;2023-03-03T01:53:45;101036.88;;;5.56;100.00
30463;BME280;17256;43.618;25.336;2023-03-03T01:57:15;100686.91;;;3.50;100.00
30463;BME280;17256;43.618;25.336;2023-03-03T02:00:48;101042.41;;;5.64;100.00
30463;BME280;17256;43.618;25.336;2023-03-03T02:04:43;101037.78;;;5.65;100.00
30463;BME280;17256;43.618;25.336;2023-03-03T02:08:54;100743.53;;;3.90;100.00
30463;BME280;17256;43.618;25.336;2023-03-03T02:16:07;100873.66;;;4.66;100.00
30463;BME280;17256;43.618;25.336;2023-03-03T02:20:05;101028.94;;;5.63;100.00
30463;BME280;17256;43.618;25.336;2023-03-03T02:27:56;100642.72;;;3.02;100.00
30463;BME280;17256;43.618;25.336;2023-03-03T02:30:58;100885.31;;;4.58;100.00
30463;BME280;17256;43.618;25.336;2023-03-03T02:34:30;100679.03;;;3.29;100.00
30463;BME280;17256;43.618;25.336;2023-03-03T02:45:29;101024.81;;;5.23;100.00
30463;BME280;17256;43.618;25.336;2023-03-03T02:52:50;101036.31;;;5.17;100.00
30463;BME280;17256;43.618;25.336;2023-03-03T02:56:08;100774.06;;;3.56;100.00
30463;BME280;17256;43.618;25.336;2023-03-03T02:59:13;101024.31;;;5.10;100.00
30463;BME280;17256;43.618;25.336;2023-03-03T03:02:45;101019.22;;;5.24;100.00
30463;BME280;17256;43.618;25.336;2023-03-03T03:05:52;101016.94;;;5.20;100.00
30463;BME280;17256;43.618;25.336;2023-03-03T03:09:40;100795.84;;;3.74;100.00
30463;BME280;17256;43.618;25.336;2023-03-03T03:12:35;100643.91;;;2.90;100.00
30463;BME280;17256;43.618;25.336;2023-03-03T03:15:21;100621.72;;;2.77;100.00
30463;BME280;17256;43.618;25.336;2023-03-03T03:18:16;100759.84;;;3.72;100.00
30463;BME280;17256;43.618;25.336;2023-03-03T03:21:31;100808.03;;;3.97;100.00
30463;BME280;17256;43.618;25.336;2023-03-03T03:24:53;101010.78;;;5.18;100.00
30463;BME280;17256;43.618;25.336;2023-03-03T03:28:28;100807.28;;;3.95;100.00
30463;BME280;17256;43.618;25.336;2023-03-03T03:31:38;100901.56;;;4.68;100.00
30463;BME280;17256;43.618;25.336;2023-03-03T03:35:39;100659.19;;;3.19;100.00
30463;BME280;17256;43.618;25.336;2023-03-03T03:39:33;100629.34;;;2.91;100.00
30463;BME280;17256;43.618;25.336;2023-03-03T03:43:13;100861.34;;;4.44;100.00
30463;BME280;17256;43.618;25.336;2023-03-03T03:47:13;100701.69;;;3.37;100.00
30463;BME280;17256;43.618;25.336;2023-03-03T03:50:56;100794.13;;;3.73;100.00
30463;BME280;17256;43.618;25.336;2023-03-03T03:54:58;100763.19;;;3.84;100.00
30463;BME280;17256;43.618;25.336;2023-03-03T03:58:43;100999.69;;;5.29;100.00
30463;BME280;17256;43.618;25.336;2023-03-03T04:10:30;101003.03;;;5.23;100.00
30463;BME280;17256;43.618;25.336;2023-03-03T04:13:56;100809.28;;;4.03;100.00
30463;BME280;17256;43.618;25.336;2023-03-03T04:17:47;101001.31;;;5.22;100.00
30463;BME280;17256;43.618;25.336;2023-03-03T04:21:37;100999.19;;;5.16;100.00
30463;BME280;17256;43.618;25.336;2023-03-03T04:29:31;100780.28;;;3.94;100.00
30463;BME280;17256;43.618;25.336;2023-03-03T04:39:36;100751.16;;;3.86;100.00
30463;BME280;17256;43.618;25.336;2023-03-03T04:42:40;100995.25;;;5.28;100.00
30463;BME280;17256;43.618;25.336;2023-03-03T04:46:35;100987.63;;;5.32;100.00
30463;BME280;17256;43.618;25.336;2023-03-03T04:50:28;100868.06;;;4.49;100.00
30463;BME280;17256;43.618;25.336;2023-03-03T04:54:17;100993.31;;;5.20;100.00
30463;BME280;17256;43.618;25.336;2023-03-03T04:57:43;100977.50;;;5.24;100.00
30463;BME280;17256;43.618;25.336;2023-03-03T05:01:04;100520.91;;;2.54;100.00
30463;BME280;17256;43.618;25.336;2023-03-03T05:05:08;100982.19;;;5.32;100.00
30463;BME280;17256;43.618;25.336;2023-03-03T05:12:32;100987.78;;;5.30;100.00
30463;BME280;17256;43.618;25.336;2023-03-03T05:20:02;100986.53;;;5.24;100.00
30463;BME280;17256;43.618;25.336;2023-03-03T05:23:40;100902.53;;;4.76;100.00
30463;BME280;17256;43.618;25.336;2023-03-03T05:27:12;100594.38;;;2.88;100.00
30463;BME280;17256;43.618;25.336;2023-03-03T05:30:56;100547.41;;;2.60;100.00
30463;BME280;17256;43.618;25.336;2023-03-03T05:34:47;100990.03;;;5.35;100.00
30463;BME280;17256;43.618;25.336;2023-03-03T05:42:30;101004.56;;;5.43;100.00
30463;BME280;17256;43.618;25.336;2023-03-03T05:46:22;101001.84;;;5.43;100.00
30463;BME280;17256;43.618;25.336;2023-03-03T05:53:51;100580.78;;;2.98;100.00
30463;BME280;17256;43.618;25.336;2023-03-03T05:57:47;100778.59;;;4.11;100.00
30463;BME280;17256;43.618;25.336;2023-03-03T06:01:17;100840.72;;;4.51;100.00
30463;BME280;17256;43.618;25.336;2023-03-03T06:04:37;100716.53;;;3.88;100.00
30463;BME280;17256;43.618;25.336;2023-03-03T06:11:43;100785.69;;;4.21;100.00
30463;BME280;17256;43.618;25.336;2023-03-03T06:18:39;100614.59;;;3.03;100.00
30463;BME280;17256;43.618;25.336;2023-03-03T06:22:31;100630.09;;;3.11;100.00
30463;BME280;17256;43.618;25.336;2023-03-03T06:25:37;100654.84;;;3.35;100.00
30463;BME280;17256;43.618;25.336;2023-03-03T06:28:29;100819.28;;;4.48;100.00
30463;BME280;17256;43.618;25.336;2023-03-03T06:32:25;100772.53;;;4.17;100.00
30463;BME280;17256;43.618;25.336;2023-03-03T06:35:39;101020.53;;;5.74;100.00
30463;BME280;17256;43.618;25.336;2023-03-03T06:41:41;101025.97;;;5.74;100.00
30463;BME280;17256;43.618;25.336;2023-03-03T06:44:50;100779.78;;;4.26;100.00
30463;BME280;17256;43.618;25.336;2023-03-03T06:48:35;100784.75;;;4.30;100.00
30463;BME280;17256;43.618;25.336;2023-03-03T06:52:39;100640.81;;;3.13;100.00
30463;BME280;17256;43.618;25.336;2023-03-03T06:55:49;100778.84;;;3.99;100.00
30463;BME280;17256;43.618;25.336;2023-03-03T06:58:17;100900.50;;;4.78;100.00
30463;BME280;17256;43.618;25.336;2023-03-03T07:00:55;100965.28;;;5.10;100.00
30463;BME280;17256;43.618;25.336;2023-03-03T07:07:25;100781.34;;;4.28;100.00
30463;BME280;17256;43.618;25.336;2023-03-03T07:10:28;100658.59;;;3.52;100.00
30463;BME280;17256;43.618;25.336;2023-03-03T07:13:36;100916.84;;;4.96;100.00
30463;BME280;17256;43.618;25.336;2023-03-03T07:16:23;100791.41;;;4.18;100.00
30463;BME280;17256;43.618;25.336;2023-03-03T07:18:59;100641.19;;;3.27;100.00
30463;BME280;17256;43.618;25.336;2023-03-03T07:22:29;100776.59;;;4.30;100.00
30463;BME280;17256;43.618;25.336;2023-03-03T07:25:34;100617.19;;;3.50;100.00
30463;BME280;17256;43.618;25.336;2023-03-03T07:28:29;101013.25;;;6.00;100.00
30463;BME280;17256;43.618;25.336;2023-03-03T07:32:15;100617.06;;;3.42;100.00
30463;BME280;17256;43.618;25.336;2023-03-03T07:35:36;101001.56;;;5.90;100.00
30463;BME280;17256;43.618;25.336;2023-03-03T07:38:47;101005.69;;;5.94;100.00
30463;BME280;17256;43.618;25.336;2023-03-03T07:53:28;101003.03;;;6.28;100.00
30463;BME280;17256;43.618;25.336;2023-03-03T08:56:04;100702.59;;;5.91;100.00
30463;BME280;17256;43.618;25.336;2023-03-03T09:05:17;100624.03;;;5.78;100.00
30463;BME280;17256;43.618;25.336;2023-03-03T09:08:06;100756.91;;;6.51;100.00
30463;BME280;17256;43.618;25.336;2023-03-03T09:11:48;100709.97;;;6.14;100.00
30463;BME280;17256;43.618;25.336;2023-03-03T09:14:46;100688.47;;;5.95;100.00
30463;BME280;17256;43.618;25.336;2023-03-03T09:17:35;100740.00;;;6.23;100.00
30463;BME280;17256;43.618;25.336;2023-03-03T09:20:49;100966.84;;;7.35;100.00
30463;BME280;17256;43.618;25.336;2023-03-03T09:24:09;100973.50;;;7.40;100.00
30463;BME280;17256;43.618;25.336;2023-03-03T09:27:33;100569.06;;;4.82;100.00
30463;BME280;17256;43.618;25.336;2023-03-03T09:33:53;100806.88;;;6.67;100.00
30463;BME280;17256;43.618;25.336;2023-03-03T09:37:29;100581.53;;;5.35;100.00
30463;BME280;17256;43.618;25.336;2023-03-03T09:41:25;100953.22;;;7.51;100.00
30463;BME280;17256;43.618;25.336;2023-03-03T09:51:48;100950.09;;;7.95;100.00
30463;BME280;17256;43.618;25.336;2023-03-03T09:55:56;100720.22;;;6.86;100.00
30463;BME280;17256;43.618;25.336;2023-03-03T10:14:58;100591.00;;;6.13;100.00
30463;BME280;17256;43.618;25.336;2023-03-03T10:18:38;100533.56;;;5.82;100.00
30463;BME280;17256;43.618;25.336;2023-03-03T11:25:07;100852.91;;;9.46;100.00
30463;BME280;17256;43.618;25.336;2023-03-03T11:28:10;100579.13;;;8.25;100.00
30463;BME280;17256;43.618;25.336;2023-03-03T11:36:51;100711.91;;;8.58;100.00
30463;BME280;17256;43.618;25.336;2023-03-03T11:39:26;100676.66;;;8.41;100.00
30463;BME280;17256;43.618;25.336;2023-03-03T11:42:18;100734.28;;;8.85;100.00
30463;BME280;17256;43.618;25.336;2023-03-03T11:58:24;100579.88;;;7.73;100.00
30463;BME280;17256;43.618;25.336;2023-03-03T12:04:39;100484.03;;;7.52;100.00
30463;BME280;17256;43.618;25.336;2023-03-03T12:10:23;100816.72;;;9.80;100.00
30463;BME280;17256;43.618;25.336;2023-03-03T12:13:42;100540.88;;;7.79;100.00
30463;BME280;17256;43.618;25.336;2023-03-03T12:22:40;100415.97;;;7.19;100.00
30463;BME280;17256;43.618;25.336;2023-03-03T12:25:49;100819.44;;;9.65;100.00
30463;BME280;17256;43.618;25.336;2023-03-03T12:34:37;100490.31;;;7.29;100.00
30463;BME280;17256;43.618;25.336;2023-03-03T12:37:31;100460.97;;;7.00;100.00
30463;BME280;17256;43.618;25.336;2023-03-03T12:40:20;100459.31;;;6.91;100.00
30463;BME280;17256;43.618;25.336;2023-03-03T12:49:02;100590.53;;;7.60;100.00
30463;BME280;17256;43.618;25.336;2023-03-03T12:54:27;100642.63;;;7.89;100.00
30463;BME280;17256;43.618;25.336;2023-03-03T13:06:06;100804.31;;;9.02;100.00
30463;BME280;17256;43.618;25.336;2023-03-03T13:11:53;100807.34;;;9.07;100.00
30463;BME280;17256;43.618;25.336;2023-03-03T13:14:48;100807.06;;;9.02;100.00
30463;BME280;17256;43.618;25.336;2023-03-03T13:17:43;100449.38;;;6.67;100.00
30463;BME280;17256;43.618;25.336;2023-03-03T13:20:28;100468.28;;;6.77;100.00
30463;BME280;17256;43.618;25.336;2023-03-03T13:26:41;100802.63;;;8.78;100.00
30463;BME280;17256;43.618;25.336;2023-03-03T13:37:28;100647.16;;;8.05;100.00
30463;BME280;17256;43.618;25.336;2023-03-03T13:43:01;100572.00;;;7.47;100.00
30463;BME280;17256;43.618;25.336;2023-03-03T13:51:43;100795.19;;;8.87;100.00
30463;BME280;17256;43.618;25.336;2023-03-03T13:54:24;100579.56;;;7.37;100.00
30463;BME280;17256;43.618;25.336;2023-03-03T13:57:06;100802.63;;;8.78;100.00
30463;BME280;17256;43.618;25.336;2023-03-03T14:03:10;100799.72;;;8.80;100.00
30463;BME280;17256;43.618;25.336;2023-03-03T14:05:49;100614.22;;;7.45;100.00
30463;BME280;17256;43.618;25.336;2023-03-03T14:09:07;100615.84;;;7.54;100.00
30463;BME280;17256;43.618;25.336;2023-03-03T14:14:03;100580.34;;;7.54;100.00
30463;BME280;17256;43.618;25.336;2023-03-03T14:19:45;100707.53;;;8.26;100.00
30463;BME280;17256;43.618;25.336;2023-03-03T14:25:06;100447.03;;;6.56;100.00
30463;BME280;17256;43.618;25.336;2023-03-03T14:28:01;100799.72;;;8.80;100.00
30463;BME280;17256;43.618;25.336;2023-03-03T14:30:42;100524.50;;;7.25;100.00
30463;BME280;17256;43.618;25.336;2023-03-03T14:33:21;100498.72;;;6.89;100.00
30463;BME280;17256;43.618;25.336;2023-03-03T14:38:40;100428.16;;;6.46;100.00
30463;BME280;17256;43.618;25.336;2023-03-03T14:41:15;100792.09;;;8.67;100.00
30463;BME280;17256;43.618;25.336;2023-03-03T14:49:00;100548.59;;;7.22;100.00
30463;BME280;17256;43.618;25.336;2023-03-03T14:51:48;100628.19;;;7.50;100.00
30463;BME280;17256;43.618;25.336;2023-03-03T14:54:25;100788.16;;;8.47;100.00
30463;BME280;17256;43.618;25.336;2023-03-03T14:57:40;100706.53;;;7.88;100.00
30463;BME280;17256;43.618;25.336;2023-03-03T15:00:29;100589.56;;;7.22;100.00
30463;BME280;17256;43.618;25.336;2023-03-03T15:03:27;100439.63;;;6.34;100.00
30463;BME280;17256;43.618;25.336;2023-03-03T15:06:26;100466.63;;;6.60;100.00
30463;BME280;17256;43.618;25.336;2023-03-03T15:09:32;100398.09;;;6.15;100.00
30463;BME280;17256;43.618;25.336;2023-03-03T15:12:22;100435.03;;;6.34;100.00
30463;BME280;17256;43.618;25.336;2023-03-03T15:15:18;100793.84;;;8.37;100.00
30463;BME280;17256;43.618;25.336;2023-03-03T15:18:09;100478.44;;;6.44;100.00
30463;BME280;17256;43.618;25.336;2023-03-03T15:24:06;100782.06;;;8.28;100.00
30463;BME280;17256;43.618;25.336;2023-03-03T15:27:11;100446.81;;;6.18;100.00
30463;BME280;17256;43.618;25.336;2023-03-03T15:29:58;100476.97;;;6.33;100.00
30463;BME280;17256;43.618;25.336;2023-03-03T15:43:36;100782.81;;;8.14;100.00
30463;BME280;17256;43.618;25.336;2023-03-03T15:51:18;100792.41;;;8.18;100.00
30463;BME280;17256;43.618;25.336;2023-03-03T15:58:51;100788.22;;;7.91;100.00
30463;BME280;17256;43.618;25.336;2023-03-03T16:07:25;100804.72;;;7.67;100.00
30463;BME280;17256;43.618;25.336;2023-03-03T16:49:51;100843.41;;;7.23;100.00
30463;BME280;17256;43.618;25.336;2023-03-03T17:51:49;100865.09;;;7.08;100.00
30463;BME280;17256;43.618;25.336;2023-03-03T18:38:48;100896.75;;;6.69;100.00
30463;BME280;17256;43.618;25.336;2023-03-03T18:41:24;100885.72;;;6.78;100.00
30463;BME280;17256;43.618;25.336;2023-03-03T18:44:45;100687.47;;;5.54;100.00
30463;BME280;17256;43.618;25.336;2023-03-03T18:48:04;100889.13;;;6.81;100.00
30463;BME280;17256;43.618;25.336;2023-03-03T18:54:31;100899.19;;;6.80;100.00
30463;BME280;17256;43.618;25.336;2023-03-03T18:57:34;100904.66;;;6.80;100.00
30463;BME280;17256;43.618;25.336;2023-03-03T19:01:00;100699.38;;;5.53;100.00
30463;BME280;17256;43.618;25.336;2023-03-03T19:03:55;100669.88;;;5.40;100.00
30463;BME280;17256;43.618;25.336;2023-03-03T19:07:12;100841.09;;;6.37;100.00
30463;BME280;17256;43.618;25.336;2023-03-03T19:10:03;100556.91;;;4.60;100.00
30463;BME280;17256;43.618;25.336;2023-03-03T19:13:49;100769.06;;;5.98;100.00
